Churriana de la Vega, Spain
Current Conditions -  °F | °C
As of 4:00 PM on Wednesday 26 Nov 2014 (Local Time) from LEGA Reporting Station
Scattered Clouds Scattered Clouds  
Wind Chill: 63°   Ceiling: Unl
Heat Index: 63°   Visibility: 6mi
Dew Point: 45°   Wind: 10mph
Humidity: 52%   Direction: 190°S
Pressure: 29.85"   Gusts: NA
Location:  37.14°N, 3.65°W
Report Text: LEGA 261500Z 19009KT 9999 SCT060 SCT160 17/07 Q1011
Loading
Personal Weather Stations






























Interactive Weather Map New forecast layout! Learn more

10-Day Weather Forecast

Advertisements
Track Severe Weather on mobile